Time;durP1;ratioP1;P1;durP2;ratioP2;P2;SDS_P1;SDS_P2;PMS_P1;PMS_P2;Temp;Humidity;BMP_temperature;BMP_pressure;BME280_temperature;BME280_humidity;BME280_pressure;Samples;Min_cycle;Max_cycle;Signal;HPM_P1;HPM_P2
2023/05/21 00:01:26;;;;;;;;;;;;;;;16.50;100.00;101022.25;4977452;28;20792;-82
2023/05/21 00:03:52;;;;;;;;;;;;;;;16.47;100.00;101014.56;4994439;28;20014;-82
2023/05/21 00:06:23;;;;;;;;;;;;;;;16.48;100.00;101018.91;5019358;28;19925;-81
2023/05/21 00:08:50;;;;;;;;;;;;;;;16.44;100.00;101016.56;5017190;28;20370;-80
2023/05/21 00:11:19;;;;;;;;;;;;;;;16.43;100.00;101016.69;5007435;28;19924;-81
2023/05/21 00:13:47;;;;;;;;;;;;;;;16.42;100.00;101021.22;5038627;28;20810;-82
2023/05/21 00:16:14;;;;;;;;;;;;;;;16.45;100.00;101018.22;5041003;28;19924;-80
2023/05/21 00:18:41;;;;;;;;;;;;;;;16.45;100.00;101010.19;5043447;28;19931;-81
2023/05/21 00:21:08;;;;;;;;;;;;;;;16.41;100.00;101006.16;5033019;28;20282;-81
2023/05/21 00:23:36;;;;;;;;;;;;;;;16.42;100.00;100999.78;5031293;28;19924;-80
2023/05/21 00:26:08;;;;;;;;;;;;;;;16.42;100.00;100991.75;5015572;28;20218;-81
2023/05/21 00:28:35;;;;;;;;;;;;;;;16.47;100.00;100993.13;5029652;28;19935;-81
2023/05/21 00:31:01;;;;;;;;;;;;;;;16.44;100.00;100984.41;5033308;28;19928;-81
2023/05/21 00:33:30;;;;;;;;;;;;;;;16.46;100.00;100989.59;5034214;28;19970;-81
2023/05/21 00:35:58;;;;;;;;;;;;;;;16.45;100.00;100983.38;5025898;28;20520;-82
2023/05/21 00:38:26;;;;;;;;;;;;;;;16.42;100.00;100975.69;5007920;28;20248;-80
2023/05/21 00:40:56;;;;;;;;;;;;;;;16.47;100.00;100977.88;5015481;28;20168;-82
2023/05/21 00:43:25;;;;;;;;;;;;;;;16.46;100.00;100968.16;5014018;28;20465;-81
2023/05/21 00:45:55;;;;;;;;;;;;;;;16.47;100.00;100963.63;5016032;28;20712;-81
2023/05/21 00:48:23;;;;;;;;;;;;;;;16.49;100.00;100969.66;5016790;28;19924;-81
2023/05/21 00:50:50;;;;;;;;;;;;;;;16.49;99.91;100956.28;4997179;28;19929;-81
2023/05/21 00:53:22;;;;;;;;;;;;;;;16.16;99.68;100899.97;5007173;28;19932;-82
2023/05/21 00:55:49;;;;;;;;;;;;;;;16.45;100.00;100948.53;5019161;28;20428;-79
2023/05/21 00:58:16;;;;;;;;;;;;;;;16.48;100.00;100952.75;5018154;28;19955;-81
2023/05/21 01:00:49;;;;;;;;;;;;;;;16.48;99.99;100949.22;5016725;28;20166;-83
2023/05/21 01:03:17;;;;;;;;;;;;;;;16.48;99.72;100938.50;5018922;28;20019;-81
2023/05/21 01:05:45;;;;;;;;;;;;;;;16.48;100.00;100933.13;5021007;28;19936;-81
2023/05/21 01:08:12;;;;;;;;;;;;;;;16.51;99.31;100927.47;5018166;28;20108;-81
2023/05/21 01:10:41;;;;;;;;;;;;;;;15.88;99.77;100827.97;5030287;28;20225;-81
2023/05/21 01:13:08;;;;;;;;;;;;;;;16.56;99.20;100922.44;5031182;28;20267;-80
2023/05/21 01:15:37;;;;;;;;;;;;;;;16.55;98.70;100920.75;5034605;28;19935;-81
2023/05/21 01:18:04;;;;;;;;;;;;;;;16.54;98.46;100919.09;5031884;28;20126;-81
2023/05/21 01:20:31;;;;;;;;;;;;;;;16.50;99.02;100912.38;5005722;28;20012;-81
2023/05/21 01:23:01;;;;;;;;;;;;;;;16.53;98.58;100912.91;4998956;28;20347;-81
2023/05/21 01:25:27;;;;;;;;;;;;;;;16.49;98.71;100916.06;5003964;28;19975;-81
2023/05/21 01:27:56;;;;;;;;;;;;;;;16.17;98.72;100859.63;4990534;28;20015;-82
2023/05/21 01:30:26;;;;;;;;;;;;;;;16.20;98.43;100853.94;4993120;28;19932;-81
2023/05/21 01:33:03;;;;;;;;;;;;;;;16.52;98.25;100899.66;5017462;28;20268;-80
2023/05/21 01:35:32;;;;;;;;;;;;;;;16.51;97.46;100898.00;5023266;28;19936;-82
2023/05/21 01:38:02;;;;;;;;;;;;;;;16.46;97.18;100882.41;5006243;28;19924;-79
2023/05/21 01:40:40;;;;;;;;;;;;;;;16.56;97.07;100880.38;5005423;28;20023;-80
2023/05/21 01:43:08;;;;;;;;;;;;;;;16.56;95.87;100879.56;5033430;28;20114;-81
2023/05/21 01:45:38;;;;;;;;;;;;;;;16.50;96.35;100880.22;5025792;28;19925;-80
2023/05/21 01:48:06;;;;;;;;;;;;;;;16.56;96.10;100874.19;5022752;28;20332;-81
2023/05/21 01:50:33;;;;;;;;;;;;;;;16.56;95.05;100874.19;5000054;28;19944;-81
2023/05/21 01:53:02;;;;;;;;;;;;;;;16.49;95.11;100871.34;5010874;28;20489;-80
2023/05/21 01:55:30;;;;;;;;;;;;;;;16.50;95.10;100869.50;5019680;28;20499;-81
2023/05/21 01:57:58;;;;;;;;;;;;;;;16.49;94.36;100871.34;5018131;28;19979;-81
2023/05/21 02:00:28;;;;;;;;;;;;;;;16.53;94.06;100861.97;5018404;28;20528;-81
2023/05/21 02:02:57;;;;;;;;;;;;;;;16.26;93.77;100803.38;5026283;28;19925;-80
2023/05/21 02:05:24;;;;;;;;;;;;;;;16.55;93.70;100840.34;5031190;28;19931;-81
2023/05/21 02:07:51;;;;;;;;;;;;;;;16.51;92.95;100845.22;5043804;28;19932;-80
2023/05/21 02:10:18;;;;;;;;;;;;;;;16.45;92.96;100844.03;5045009;28;20417;-81
2023/05/21 02:12:45;;;;;;;;;;;;;;;16.41;93.08;100844.56;4995500;28;19932;-81
2023/05/21 02:15:13;;;;;;;;;;;;;;;16.44;92.81;100842.38;5038680;28;20335;-82
2023/05/21 02:17:43;;;;;;;;;;;;;;;16.10;92.63;100799.72;5004414;28;20302;-81
2023/05/21 02:20:16;;;;;;;;;;;;;;;16.39;92.52;100858.13;5031743;28;20012;-80
2023/05/21 02:22:54;;;;;;;;;;;;;;;16.42;92.85;100854.28;5012842;28;20392;-80
2023/05/21 02:25:30;;;;;;;;;;;;;;;16.42;92.39;100863.13;5009371;28;19929;-82
2023/05/21 02:27:58;;;;;;;;;;;;;;;16.40;92.02;100870.50;5021980;28;20223;-81
2023/05/21 02:30:25;;;;;;;;;;;;;;;16.38;93.24;100860.97;5008485;28;20284;-81
2023/05/21 02:32:52;;;;;;;;;;;;;;;16.34;92.97;100855.13;5036391;28;20119;-82
2023/05/21 02:35:19;;;;;;;;;;;;;;;16.35;92.48;100853.28;5019561;28;20312;-82
2023/05/21 02:37:46;;;;;;;;;;;;;;;16.33;92.62;100842.72;4995579;28;20140;-82
2023/05/21 02:40:12;;;;;;;;;;;;;;;16.37;91.64;100837.88;4985126;28;20316;-83
2023/05/21 02:42:40;;;;;;;;;;;;;;;16.36;91.38;100820.09;5006293;28;20248;-81
2023/05/21 02:45:10;;;;;;;;;;;;;;;16.37;90.79;100822.63;4999765;28;19924;-82
2023/05/21 02:47:37;;;;;;;;;;;;;;;16.33;92.63;100837.34;5013114;28;20579;-84
2023/05/21 02:50:08;;;;;;;;;;;;;;;16.27;92.54;100830.00;5031574;28;19928;-81
2023/05/21 02:52:35;;;;;;;;;;;;;;;16.27;93.08;100824.66;5025097;28;20529;-81
2023/05/21 02:55:02;;;;;;;;;;;;;;;16.27;92.88;100830.00;5017648;28;19925;-83
2023/05/21 02:57:29;;;;;;;;;;;;;;;16.26;93.39;100836.34;5020783;28;19938;-80
2023/05/21 02:59:56;;;;;;;;;;;;;;;16.26;93.86;100835.50;5000274;28;20053;-82
2023/05/21 03:02:22;;;;;;;;;;;;;;;16.24;93.74;100827.66;5013771;28;19995;-83
2023/05/21 03:04:50;;;;;;;;;;;;;;;16.20;94.37;100832.50;5022414;28;19925;-83
2023/05/21 03:07:18;;;;;;;;;;;;;;;16.20;93.34;100842.38;5008635;28;19999;-81
2023/05/21 03:09:45;;;;;;;;;;;;;;;16.20;92.16;100839.72;5019378;28;19946;-83
2023/05/21 03:12:14;;;;;;;;;;;;;;;16.21;93.18;100838.69;5020626;28;19924;-83
2023/05/21 03:14:45;;;;;;;;;;;;;;;15.75;93.19;100776.75;5029078;28;20282;-82
2023/05/21 03:17:15;;;;;;;;;;;;;;;15.75;93.50;100779.44;5034547;28;19991;-82
2023/05/21 03:19:53;;;;;;;;;;;;;;;15.87;93.14;100802.19;4998185;28;19932;-83
2023/05/21 03:22:26;;;;;;;;;;;;;;;16.05;92.66;100833.34;4977574;28;19991;-83
2023/05/21 03:25:00;;;;;;;;;;;;;;;16.16;93.09;100857.13;4986129;28;20360;-82
2023/05/21 03:27:29;;;;;;;;;;;;;;;16.17;93.73;100856.97;4976100;28;19959;-82
2023/05/21 03:29:58;;;;;;;;;;;;;;;16.24;93.40;100860.66;5005743;28;19944;-83
2023/05/21 03:32:25;;;;;;;;;;;;;;;16.20;94.79;100863.81;5013726;28;20270;-83
2023/05/21 03:34:51;;;;;;;;;;;;;;;16.17;95.29;100864.16;5002659;28;19932;-82
2023/05/21 03:37:18;;;;;;;;;;;;;;;16.14;95.14;100856.44;4988291;28;20539;-83
2023/05/21 03:39:45;;;;;;;;;;;;;;;16.10;94.91;100858.63;5005043;28;19925;-83
2023/05/21 03:42:15;;;;;;;;;;;;;;;16.09;94.51;100859.59;5002695;28;19928;-84
2023/05/21 03:44:42;;;;;;;;;;;;;;;16.13;93.71;100852.09;5024523;28;20349;-83
2023/05/21 03:47:08;;;;;;;;;;;;;;;16.14;93.32;100861.78;5025405;28;19946;-83
2023/05/21 03:49:37;;;;;;;;;;;;;;;16.13;92.87;100862.81;4967708;28;19929;-83
2023/05/21 03:52:04;;;;;;;;;;;;;;;16.11;93.37;100862.97;4994572;28;20166;-82
2023/05/21 03:54:31;;;;;;;;;;;;;;;16.09;93.97;100861.44;4975470;28;19925;-82
2023/05/21 03:57:01;;;;;;;;;;;;;;;16.08;94.13;100871.34;4991376;28;19925;-83
2023/05/21 03:59:28;;;;;;;;;;;;;;;16.09;93.67;100872.16;4954508;28;20169;-83
2023/05/21 04:01:55;;;;;;;;;;;;;;;16.09;92.99;100867.66;4970166;28;19937;-83
2023/05/21 04:04:21;;;;;;;;;;;;;;;16.09;93.10;100861.44;5008005;28;19936;-83
2023/05/21 04:06:49;;;;;;;;;;;;;;;16.10;92.94;100865.81;5004064;28;20169;-83
2023/05/21 04:09:16;;;;;;;;;;;;;;;16.16;91.58;100865.16;5030091;28;19936;-84
2023/05/21 04:11:45;;;;;;;;;;;;;;;15.75;90.60;100806.19;5002343;28;20401;-83
2023/05/21 04:14:16;;;;;;;;;;;;;;;15.87;90.72;100823.59;4982917;28;19935;-82
2023/05/21 04:16:50;;;;;;;;;;;;;;;16.16;90.73;100867.81;4972647;28;19932;-83
2023/05/21 04:19:18;;;;;;;;;;;;;;;16.16;90.83;100874.00;4974857;28;19929;-83
2023/05/21 04:21:46;;;;;;;;;;;;;;;15.90;89.93;100830.47;5002722;28;20416;-85
2023/05/21 04:24:13;;;;;;;;;;;;;;;16.18;90.05;100884.56;4999260;28;19949;-83
2023/05/21 04:26:44;;;;;;;;;;;;;;;16.17;90.70;100886.41;4986872;28;20275;-83
2023/05/21 04:29:10;;;;;;;;;;;;;;;16.15;90.89;100882.22;4996604;28;20177;-81
2023/05/21 04:31:37;;;;;;;;;;;;;;;16.14;90.73;100891.25;4979008;28;20290;-83
2023/05/21 04:34:05;;;;;;;;;;;;;;;16.15;91.33;100891.09;4983160;28;20322;-84
2023/05/21 04:36:32;;;;;;;;;;;;;;;16.10;91.51;100890.75;5013840;28;20015;-84
2023/05/21 04:38:59;;;;;;;;;;;;;;;16.11;91.38;100886.25;5000134;28;20384;-83
2023/05/21 04:41:27;;;;;;;;;;;;;;;16.11;91.80;100883.56;4976305;28;20355;-82
2023/05/21 04:43:57;;;;;;;;;;;;;;;16.17;90.90;100869.53;4997940;28;20163;-84
2023/05/21 04:46:33;;;;;;;;;;;;;;;15.88;91.01;100836.00;5001239;28;20138;-83
2023/05/21 04:49:08;;;;;;;;;;;;;;;16.14;90.99;100873.38;5020317;28;20136;-83
2023/05/21 04:51:36;;;;;;;;;;;;;;;16.22;91.12;100889.44;4993048;28;20279;-82
2023/05/21 04:54:03;;;;;;;;;;;;;;;16.32;90.27;100888.44;5004135;28;20145;-83
2023/05/21 04:56:30;;;;;;;;;;;;;;;16.22;90.51;100888.59;4992158;28;20020;-83
2023/05/21 04:58:57;;;;;;;;;;;;;;;16.26;90.44;100881.06;5010036;28;20489;-84
2023/05/21 05:01:28;;;;;;;;;;;;;;;16.24;90.99;100890.09;4992218;28;20255;-83
2023/05/21 05:03:55;;;;;;;;;;;;;;;16.28;90.47;100897.81;5001583;28;19925;-83
2023/05/21 05:06:24;;;;;;;;;;;;;;;16.30;90.00;100891.28;5023618;28;20130;-83
2023/05/21 05:08:51;;;;;;;;;;;;;;;16.24;90.93;100891.97;5019532;28;20445;-84
2023/05/21 05:11:21;;;;;;;;;;;;;;;16.10;90.62;100871.19;5008274;28;19924;-83
2023/05/21 05:13:49;;;;;;;;;;;;;;;16.37;89.84;100899.50;5008861;28;20318;-82
2023/05/21 05:16:16;;;;;;;;;;;;;;;16.29;90.83;100902.16;5023984;28;19924;-83
2023/05/21 05:18:43;;;;;;;;;;;;;;;16.40;90.45;100905.34;5007582;28;20511;-83
2023/05/21 05:21:10;;;;;;;;;;;;;;;16.11;89.43;100854.09;5002345;28;19936;-84
2023/05/21 05:23:36;;;;;;;;;;;;;;;16.45;89.37;100900.31;4984322;28;19925;-84
2023/05/21 05:26:03;;;;;;;;;;;;;;;16.36;90.25;100904.00;5028582;28;19947;-83
2023/05/21 05:28:29;;;;;;;;;;;;;;;16.40;89.90;100907.19;5013976;28;19929;-83
2023/05/21 05:30:56;;;;;;;;;;;;;;;16.39;90.54;100911.72;5000209;28;19929;-84
2023/05/21 05:33:23;;;;;;;;;;;;;;;16.34;91.33;100903.34;4996554;28;20135;-83
2023/05/21 05:35:49;;;;;;;;;;;;;;;16.44;90.29;100900.50;5013734;28;19924;-84
2023/05/21 05:38:16;;;;;;;;;;;;;;;16.44;90.30;100901.31;5015363;28;19924;-82
2023/05/21 05:40:43;;;;;;;;;;;;;;;16.55;89.71;100893.94;5013873;28;19931;-83
2023/05/21 05:43:13;;;;;;;;;;;;;;;16.54;90.50;100903.00;4981425;28;20382;-83
2023/05/21 05:45:45;;;;;;;;;;;;;;;16.60;90.81;100905.88;5003459;28;20248;-82
2023/05/21 05:48:20;;;;;;;;;;;;;;;16.39;89.66;100852.75;4985023;28;19987;-83
2023/05/21 05:50:55;;;;;;;;;;;;;;;16.81;88.92;100900.00;5015056;28;20122;-83
2023/05/21 05:53:22;;;;;;;;;;;;;;;16.93;88.16;100902.31;5017964;28;19955;-83
2023/05/21 05:55:50;;;;;;;;;;;;;;;16.95;88.11;100900.31;5029879;28;19964;-82
2023/05/21 05:58:20;;;;;;;;;;;;;;;16.99;87.25;100891.75;5033510;28;19936;-82
2023/05/21 06:00:52;;;;;;;;;;;;;;;17.08;87.08;100895.25;5016003;28;19925;-82
2023/05/21 06:03:21;;;;;;;;;;;;;;;17.00;86.97;100887.22;4999197;28;19950;-84
2023/05/21 06:05:48;;;;;;;;;;;;;;;16.96;87.64;100888.56;5026268;28;19933;-82
2023/05/21 06:08:15;;;;;;;;;;;;;;;16.98;87.51;100875.81;5014838;28;20386;-83
2023/05/21 06:10:44;;;;;;;;;;;;;;;16.98;87.59;100886.56;5015231;28;20397;-82
2023/05/21 06:13:16;;;;;;;;;;;;;;;17.11;86.93;100886.00;4974683;28;19932;-82
2023/05/21 06:15:54;;;;;;;;;;;;;;;17.05;87.02;100874.13;4993653;28;19994;-83
2023/05/21 06:18:35;;;;;;;;;;;;;;;17.08;87.07;100873.78;4998534;28;19935;-82
2023/05/21 06:21:17;;;;;;;;;;;;;;;17.04;87.26;100873.31;4996896;28;20089;-81
2023/05/21 06:24:04;;;;;;;;;;;;;;;16.83;87.36;100832.78;4998850;28;20280;-81
2023/05/21 06:26:41;;;;;;;;;;;;;;;17.15;87.30;100880.13;5001668;28;20176;-84
2023/05/21 06:29:08;;;;;;;;;;;;;;;17.18;87.15;100874.41;4998183;28;20581;-81
2023/05/21 06:31:35;;;;;;;;;;;;;;;17.21;86.95;100890.19;5017542;28;19931;-84
2023/05/21 06:34:02;;;;;;;;;;;;;;;17.21;87.83;100878.59;5043020;28;19939;-81
2023/05/21 06:36:31;;;;;;;;;;;;;;;17.33;87.99;100892.47;4998733;28;20300;-84
2023/05/21 06:39:02;;;;;;;;;;;;;;;17.40;87.80;100888.09;5005096;28;20397;-82
2023/05/21 06:41:28;;;;;;;;;;;;;;;17.54;87.37;100889.22;4982052;28;20702;-83
2023/05/21 06:43:55;;;;;;;;;;;;;;;17.65;86.80;100891.53;5012803;28;20034;-83
2023/05/21 06:46:22;;;;;;;;;;;;;;;17.66;85.81;100894.00;4992255;28;20547;-83
2023/05/21 06:48:48;;;;;;;;;;;;;;;17.67;85.86;100894.84;5005851;28;20393;-83
2023/05/21 06:51:19;;;;;;;;;;;;;;;17.70;86.37;100895.34;5006715;28;20029;-84
2023/05/21 06:54:00;;;;;;;;;;;;;;;17.43;87.45;100852.88;4995025;28;19928;-83
2023/05/21 06:56:26;;;;;;;;;;;;;;;17.89;85.74;100899.47;4983466;28;20178;-84
2023/05/21 06:58:53;;;;;;;;;;;;;;;17.90;86.07;100905.66;5003409;28;20362;-83
2023/05/21 07:01:21;;;;;;;;;;;;;;;18.02;85.57;100898.03;4977375;28;20420;-83
2023/05/21 07:03:48;;;;;;;;;;;;;;;18.02;85.55;100898.88;4995278;28;20332;-82
2023/05/21 07:06:21;;;;;;;;;;;;;;;17.89;85.17;100855.66;5030647;28;20364;-83
2023/05/21 07:08:48;;;;;;;;;;;;;;;18.31;84.22;100902.72;5017357;28;19955;-84
2023/05/21 07:11:15;;;;;;;;;;;;;;;18.31;83.89;100903.53;5026863;28;19939;-83
2023/05/21 07:13:46;;;;;;;;;;;;;;;17.92;83.68;100818.53;5009806;28;19939;-83
2023/05/21 07:16:18;;;;;;;;;;;;;;;18.52;82.49;100894.81;4995701;28;20169;-83
2023/05/21 07:18:45;;;;;;;;;;;;;;;18.55;82.59;100899.81;5005021;28;20614;-83
2023/05/21 07:21:15;;;;;;;;;;;;;;;18.61;80.96;100902.78;5014076;28;20095;-84
2023/05/21 07:23:48;;;;;;;;;;;;;;;18.36;81.27;100851.94;5029856;28;20027;-83
2023/05/21 07:26:23;;;;;;;;;;;;;;;18.63;81.71;100898.06;4974489;28;20036;-84
2023/05/21 07:28:53;;;;;;;;;;;;;;;18.71;81.82;100896.13;4962799;28;19924;-83
2023/05/21 07:31:28;;;;;;;;;;;;;;;18.70;82.04;100893.63;4971315;28;19925;-83
2023/05/21 07:33:58;;;;;;;;;;;;;;;18.77;81.80;100891.91;4972217;28;20782;-83
2023/05/21 07:36:25;;;;;;;;;;;;;;;18.89;80.46;100905.75;4983385;28;19935;-83
2023/05/21 07:38:51;;;;;;;;;;;;;;;18.92;80.45;100898.16;4989243;28;19928;-83
2023/05/21 07:41:18;;;;;;;;;;;;;;;18.90;79.65;100902.88;5031502;28;19925;-82
2023/05/21 07:43:45;;;;;;;;;;;;;;;18.92;80.33;100894.63;5016144;28;19947;-83
2023/05/21 07:46:11;;;;;;;;;;;;;;;19.02;79.24;100905.13;5036666;28;20340;-83
2023/05/21 07:48:38;;;;;;;;;;;;;;;18.99;79.14;100896.38;5020206;28;20235;-83
2023/05/21 07:51:08;;;;;;;;;;;;;;;19.08;79.32;100896.28;5005571;28;19924;-82
2023/05/21 07:53:35;;;;;;;;;;;;;;;19.04;80.45;100885.06;5016522;28;19924;-82
2023/05/21 07:56:01;;;;;;;;;;;;;;;19.12;80.36;100884.16;4999253;28;20337;-83
2023/05/21 07:58:28;;;;;;;;;;;;;;;19.21;79.98;100888.41;5013532;28;20160;-83
2023/05/21 08:00:57;;;;;;;;;;;;;;;19.14;79.84;100877.56;4978305;28;19929;-84
2023/05/21 08:03:29;;;;;;;;;;;;;;;19.11;78.64;100834.06;4974859;28;19935;-83
2023/05/21 08:05:59;;;;;;;;;;;;;;;19.07;78.43;100832.75;4979064;28;20129;-84
2023/05/21 08:08:27;;;;;;;;;;;;;;;19.10;79.75;100862.81;4982670;28;19932;-83
2023/05/21 08:10:54;;;;;;;;;;;;;;;19.33;80.18;100897.69;5010830;28;20382;-82
2023/05/21 08:13:23;;;;;;;;;;;;;;;19.08;79.55;100856.78;5010065;28;19935;-83
2023/05/21 08:15:53;;;;;;;;;;;;;;;19.55;77.47;100895.06;5016263;28;19925;-83
2023/05/21 08:18:22;;;;;;;;;;;;;;;19.45;79.29;100897.22;5007231;28;20017;-84
2023/05/21 08:20:50;;;;;;;;;;;;;;;19.65;77.87;100890.22;5010043;28;19925;-83
2023/05/21 08:23:20;;;;;;;;;;;;;;;19.69;78.44;100886.16;4999915;28;20404;-84
2023/05/21 08:25:52;;;;;;;;;;;;;;;19.43;78.25;100847.09;4999574;28;19979;-83
2023/05/21 08:28:23;;;;;;;;;;;;;;;19.69;77.58;100896.94;4977279;28;20192;-82
2023/05/21 08:30:50;;;;;;;;;;;;;;;19.90;77.83;100892.59;4962994;28;20323;-83
2023/05/21 08:33:19;;;;;;;;;;;;;;;20.00;76.24;100888.59;4973533;28;19925;-86
2023/05/21 08:35:51;;;;;;;;;;;;;;;20.04;76.54;100883.63;4974555;28;19978;-84
2023/05/21 08:38:21;;;;;;;;;;;;;;;20.01;77.09;100884.03;4964125;28;20089;-82
2023/05/21 08:40:50;;;;;;;;;;;;;;;20.01;75.81;100884.03;5010774;28;19928;-83
2023/05/21 08:43:16;;;;;;;;;;;;;;;20.01;77.05;100892.09;5002879;28;20221;-84
2023/05/21 08:45:44;;;;;;;;;;;;;;;20.15;76.28;100893.09;4999008;28;20186;-83
2023/05/21 08:48:11;;;;;;;;;;;;;;;20.30;75.52;100887.63;5012549;28;19994;-83
2023/05/21 08:50:40;;;;;;;;;;;;;;;20.33;75.26;100892.63;5004746;28;19932;-83
2023/05/21 08:53:07;;;;;;;;;;;;;;;20.39;74.57;100892.69;5005629;28;19925;-84
2023/05/21 08:55:52;;;;;;;;;;;;;;;20.57;72.62;100888.72;4995572;28;20212;-84
2023/05/21 08:58:20;;;;;;;;;;;;;;;20.51;73.36;100884.91;4983560;28;19925;-85
2023/05/21 09:00:47;;;;;;;;;;;;;;;20.53;74.98;100895.50;5003762;28;19956;-84
2023/05/21 09:03:14;;;;;;;;;;;;;;;20.57;74.48;100900.34;5012651;28;19974;-82
2023/05/21 09:05:43;;;;;;;;;;;;;;;20.80;73.42;100899.25;5013872;28;19959;-84
2023/05/21 09:08:16;;;;;;;;;;;;;;;20.82;72.69;100894.50;5018147;28;20560;-83
2023/05/21 09:10:50;;;;;;;;;;;;;;;20.73;73.47;100895.69;5009487;28;20402;-82
2023/05/21 09:13:17;;;;;;;;;;;;;;;20.81;73.56;100890.16;5010083;28;20180;-84
2023/05/21 09:15:44;;;;;;;;;;;;;;;20.79;73.03;100892.22;4992998;28;19951;-85
2023/05/21 09:18:11;;;;;;;;;;;;;;;20.86;73.28;100893.09;5001055;28;19931;-85
2023/05/21 09:20:40;;;;;;;;;;;;;;;20.98;72.19;100902.31;4995752;28;19925;-84
2023/05/21 09:23:15;;;;;;;;;;;;;;;21.03;71.23;100894.44;4985528;28;19932;-85
2023/05/21 09:25:56;;;;;;;;;;;;;;;21.08;71.32;100897.38;5018239;28;19924;-84
2023/05/21 09:28:26;;;;;;;;;;;;;;;21.05;70.65;100884.28;5014438;28;20040;-83
2023/05/21 09:31:02;;;;;;;;;;;;;;;21.23;71.22;100901.81;5012759;28;20363;-84
2023/05/21 09:33:28;;;;;;;;;;;;;;;21.27;71.36;100895.00;5018863;28;20299;-84
2023/05/21 09:35:55;;;;;;;;;;;;;;;21.41;71.77;100895.91;5010313;28;20190;-84
2023/05/21 09:38:23;;;;;;;;;;;;;;;21.19;70.09;100866.31;4989347;28;20323;-84
2023/05/21 09:40:54;;;;;;;;;;;;;;;21.63;69.85;100896.66;5016007;28;20361;-84
2023/05/21 09:43:24;;;;;;;;;;;;;;;21.63;70.48;100899.34;4994840;28;19932;-83
2023/05/21 09:45:51;;;;;;;;;;;;;;;21.72;70.23;100898.13;5021417;28;19925;-83
2023/05/21 09:48:39;;;;;;;;;;;;;;;21.80;70.26;100900.66;5017839;28;19936;-84
2023/05/21 09:51:16;;;;;;;;;;;;;;;21.85;67.83;100906.28;5018309;28;20356;-82
2023/05/21 09:53:52;;;;;;;;;;;;;;;21.87;69.38;100906.91;4979540;28;20150;-83
2023/05/21 09:56:30;;;;;;;;;;;;;;;21.95;67.76;100903.19;4972780;28;20468;-84
2023/05/21 09:59:05;;;;;;;;;;;;;;;21.83;69.08;100867.81;4989845;28;20398;-83
2023/05/21 10:01:38;;;;;;;;;;;;;;;22.30;69.06;100912.00;5013034;28;19929;-84
2023/05/21 10:04:08;;;;;;;;;;;;;;;22.37;68.58;100907.44;5017328;28;19928;-84
2023/05/21 10:06:41;;;;;;;;;;;;;;;22.56;68.80;100910.38;5016325;28;19955;-83
2023/05/21 10:09:13;;;;;;;;;;;;;;;22.74;67.59;100904.31;5012415;28;19925;-83
2023/05/21 10:11:42;;;;;;;;;;;;;;;22.77;66.63;100903.94;5000291;28;19925;-83
2023/05/21 10:14:14;;;;;;;;;;;;;;;22.87;66.05;100909.75;5010887;28;20008;-84
2023/05/21 10:16:43;;;;;;;;;;;;;;;22.95;64.53;100914.09;4997405;28;20317;-83
2023/05/21 10:19:13;;;;;;;;;;;;;;;23.04;63.58;100902.88;4974065;28;20190;-83
2023/05/21 10:21:44;;;;;;;;;;;;;;;23.13;63.80;100906.19;4964924;28;20135;-83
2023/05/21 10:24:24;;;;;;;;;;;;;;;23.34;65.33;100901.53;4974710;28;20352;-84
2023/05/21 10:26:57;;;;;;;;;;;;;;;23.23;63.29;100868.66;4980420;28;20553;-83
2023/05/21 10:29:27;;;;;;;;;;;;;;;23.56;63.24;100900.19;5002763;28;19982;-83
2023/05/21 10:32:01;;;;;;;;;;;;;;;23.48;62.63;100864.41;4985355;28;20174;-83
2023/05/21 10:34:31;;;;;;;;;;;;;;;23.75;61.78;100903.09;4997596;28;19924;-83
2023/05/21 10:37:00;;;;;;;;;;;;;;;23.89;61.80;100904.69;5003532;28;19930;-83
2023/05/21 10:39:31;;;;;;;;;;;;;;;24.01;60.70;100892.09;4990563;28;19924;-83
2023/05/21 10:42:17;;;;;;;;;;;;;;;24.14;61.34;100896.59;5005627;28;19924;-83
2023/05/21 10:44:43;;;;;;;;;;;;;;;24.26;60.75;100889.41;5018524;28;19932;-83
2023/05/21 10:47:29;;;;;;;;;;;;;;;24.27;59.54;100885.66;5011774;28;20103;-83
2023/05/21 10:49:56;;;;;;;;;;;;;;;24.56;60.84;100887.94;4999581;28;20119;-83
2023/05/21 10:52:32;;;;;;;;;;;;;;;24.62;60.36;100857.22;5013356;28;19929;-82
2023/05/21 10:55:10;;;;;;;;;;;;;;;24.79;60.54;100876.47;5012886;28;20411;-83
2023/05/21 10:57:38;;;;;;;;;;;;;;;24.63;61.04;100875.16;5025154;28;20410;-82
2023/05/21 11:00:06;;;;;;;;;;;;;;;24.62;60.88;100876.22;5012466;28;19924;-83
2023/05/21 11:02:33;;;;;;;;;;;;;;;24.62;59.02;100870.78;5017084;28;19925;-82
2023/05/21 11:05:01;;;;;;;;;;;;;;;24.59;59.88;100871.22;5015935;28;19935;-82
2023/05/21 11:07:56;;;;;;;;;;;;;;;24.58;59.91;100869.56;5010723;28;19925;-83
2023/05/21 11:10:44;;;;;;;;;;;;;;;24.78;59.40;100863.94;5012569;28;19932;-84
2023/05/21 11:13:13;;;;;;;;;;;;;;;24.92;58.71;100865.47;5020328;28;20341;-84
2023/05/21 11:16:04;;;;;;;;;;;;;;;24.78;57.81;100815.91;5015088;28;20093;-84
2023/05/21 11:18:34;;;;;;;;;;;;;;;25.27;57.63;100856.75;5009043;28;20183;-82
2023/05/21 11:21:04;;;;;;;;;;;;;;;25.43;57.66;100855.31;5007374;28;20458;-83
2023/05/21 11:23:51;;;;;;;;;;;;;;;25.28;56.39;100858.41;4973423;28;20428;-83
2023/05/21 11:26:19;;;;;;;;;;;;;;;25.37;56.68;100854.34;5011032;28;20302;-83
2023/05/21 11:28:50;;;;;;;;;;;;;;;25.03;57.41;100810.41;5010441;28;20038;-87
2023/05/21 11:31:26;;;;;;;;;;;;;;;25.28;57.74;100853.81;5000083;28;19929;-82
2023/05/21 11:34:12;;;;;;;;;;;;;;;25.23;57.06;100855.56;4998764;28;20566;-83
2023/05/21 11:36:41;;;;;;;;;;;;;;;25.16;57.35;100844.72;5014230;28;20465;-83
2023/05/21 11:39:16;;;;;;;;;;;;;;;25.06;57.57;100850.69;5007654;28;19925;-83
2023/05/21 11:42:00;;;;;;;;;;;;;;;24.96;57.46;100804.22;5008535;28;19929;-82
2023/05/21 11:44:59;;;;;;;;;;;;;;;25.43;55.45;100849.88;5012559;28;19925;-82
2023/05/21 11:47:35;;;;;;;;;;;;;;;25.48;56.57;100848.13;5009439;28;20402;-83
2023/05/21 11:50:02;;;;;;;;;;;;;;;25.81;54.38;100849.56;5044748;28;20276;-82
2023/05/21 11:52:30;;;;;;;;;;;;;;;25.96;53.77;100843.72;5022688;28;19936;-83
2023/05/21 11:54:58;;;;;;;;;;;;;;;26.23;52.63;100834.06;5022553;28;19924;-82
2023/05/21 11:57:30;;;;;;;;;;;;;;;26.46;52.03;100835.19;5023081;28;19932;-82
2023/05/21 11:59:58;;;;;;;;;;;;;;;26.68;51.71;100831.88;5023269;28;19935;-82
2023/05/21 12:02:27;;;;;;;;;;;;;;;26.64;51.61;100839.69;5026271;28;20373;-82
2023/05/21 12:04:59;;;;;;;;;;;;;;;26.38;51.32;100830.88;5020432;28;19924;-82
2023/05/21 12:07:29;;;;;;;;;;;;;;;26.21;52.33;100844.38;5024754;28;19931;-83
2023/05/21 12:09:59;;;;;;;;;;;;;;;26.05;53.05;100847.78;5006401;28;20296;-81
2023/05/21 12:12:31;;;;;;;;;;;;;;;25.96;53.77;100841.00;5003799;28;20461;-82
2023/05/21 12:15:24;;;;;;;;;;;;;;;25.60;55.24;100845.47;4977340;28;20018;-83
2023/05/21 12:17:51;;;;;;;;;;;;;;;25.55;55.70;100846.16;5005481;28;20640;-81
2023/05/21 12:20:21;;;;;;;;;;;;;;;25.52;55.61;100837.63;5005076;28;19935;-81
2023/05/21 12:22:49;;;;;;;;;;;;;;;25.40;55.64;100844.91;4990853;28;19925;-82
2023/05/21 12:25:18;;;;;;;;;;;;;;;25.31;56.21;100838.94;4986284;28;20057;-82
2023/05/21 12:27:46;;;;;;;;;;;;;;;25.13;56.62;100834.34;5012758;28;19932;-81
2023/05/21 12:30:13;;;;;;;;;;;;;;;25.05;56.03;100827.31;5011468;28;20156;-82
2023/05/21 12:32:46;;;;;;;;;;;;;;;24.81;56.14;100785.59;5004975;28;19928;-82
2023/05/21 12:35:32;;;;;;;;;;;;;;;24.57;57.25;100802.78;4989799;28;19937;-83
2023/05/21 12:38:03;;;;;;;;;;;;;;;24.59;56.29;100838.66;4998036;28;20203;-82
2023/05/21 12:40:34;;;;;;;;;;;;;;;24.46;57.58;100840.44;5009301;28;20389;-82
2023/05/21 12:43:07;;;;;;;;;;;;;;;24.38;58.44;100837.16;5002132;28;20282;-81
2023/05/21 12:45:35;;;;;;;;;;;;;;;24.29;58.63;100832.00;5009777;28;19929;-82
2023/05/21 12:48:02;;;;;;;;;;;;;;;24.22;59.03;100828.50;5016034;28;20382;-82
2023/05/21 12:50:29;;;;;;;;;;;;;;;24.22;58.63;100830.38;5010889;28;20374;-83